createdAt,value
2023-01-28T00:00:25.881Z,1.21
2023-01-28T00:03:25.618Z,1.23
2023-01-28T00:04:25.457Z,1.22
2023-01-28T00:05:25.411Z,1.20
2023-01-28T00:10:25.006Z,1.22
2023-01-28T00:18:24.367Z,1.22
2023-01-28T00:20:24.206Z,1.20
2023-01-28T00:21:24.117Z,1.19
2023-01-28T00:22:24.085Z,1.21
2023-01-28T00:23:24.004Z,1.21
2023-01-28T00:24:23.966Z,1.20
2023-01-28T00:25:23.838Z,1.20
2023-01-28T00:26:23.768Z,1.19
2023-01-28T00:27:23.644Z,1.21
2023-01-28T00:28:23.582Z,1.21
2023-01-28T00:29:23.541Z,1.19
2023-01-28T00:30:23.438Z,1.19
2023-01-28T00:31:23.400Z,1.19
2023-01-28T00:32:23.323Z,1.16
2023-01-28T00:33:23.241Z,1.19
2023-01-28T00:34:23.148Z,1.19
2023-01-28T00:35:23.098Z,1.18
2023-01-28T00:36:22.993Z,1.17
2023-01-28T00:37:22.964Z,1.20
2023-01-28T00:38:22.893Z,1.17
2023-01-28T00:39:22.768Z,1.18
2023-01-28T00:40:22.727Z,1.20
2023-01-28T00:41:22.663Z,1.18
2023-01-28T00:42:22.559Z,1.18
2023-01-28T00:43:22.485Z,1.20
2023-01-28T00:44:22.432Z,1.19
2023-01-28T00:45:22.348Z,1.16
2023-01-28T00:46:22.387Z,1.20
2023-01-28T00:47:22.184Z,1.17
2023-01-28T00:48:22.119Z,1.23
2023-01-28T00:49:22.009Z,1.20
2023-01-28T00:50:21.966Z,1.19
2023-01-28T00:51:21.881Z,1.18
2023-01-28T00:52:21.778Z,1.20
2023-01-28T00:53:21.713Z,1.18
2023-01-28T00:54:21.636Z,1.19
2023-01-28T00:55:21.629Z,1.19
2023-01-28T00:56:21.498Z,1.19
2023-01-28T00:57:21.359Z,1.19
2023-01-28T00:58:21.350Z,1.20
2023-01-28T00:59:21.228Z,1.20
2023-01-28T01:00:21.166Z,1.20
2023-01-28T01:01:21.101Z,1.21
2023-01-28T01:02:21.054Z,1.19
2023-01-28T01:03:20.927Z,1.19
2023-01-28T01:04:20.861Z,1.19
2023-01-28T01:05:20.770Z,1.19
2023-01-28T01:06:20.719Z,1.20
2023-01-28T01:07:20.647Z,1.17
2023-01-28T01:08:20.568Z,1.19
2023-01-28T01:09:20.463Z,1.15
2023-01-28T01:10:20.414Z,1.15
2023-01-28T01:11:20.375Z,1.18
2023-01-28T01:12:20.228Z,1.20
2023-01-28T01:13:20.206Z,1.18
2023-01-28T01:14:20.121Z,1.19
2023-01-28T01:15:20.032Z,1.19
2023-01-28T01:16:19.987Z,1.18
2023-01-28T01:17:19.885Z,1.18
2023-01-28T01:18:19.809Z,1.16
2023-01-28T01:19:19.731Z,1.16
2023-01-28T01:20:19.708Z,1.16
2023-01-28T01:21:19.568Z,1.19
2023-01-28T01:22:19.484Z,1.18
2023-01-28T01:23:19.410Z,1.15
2023-01-28T01:24:19.374Z,1.19
2023-01-28T01:25:19.283Z,1.17
2023-01-28T01:26:19.206Z,1.18
2023-01-28T01:27:19.134Z,1.15
2023-01-28T01:28:19.054Z,1.17
2023-01-28T01:29:18.979Z,1.18
2023-01-28T01:30:18.903Z,1.18
2023-01-28T01:31:18.822Z,1.17
2023-01-28T01:32:18.830Z,1.18
2023-01-28T01:33:18.669Z,1.14
2023-01-28T01:34:18.609Z,1.15
2023-01-28T01:35:18.833Z,1.15
2023-01-28T01:36:18.506Z,1.17
2023-01-28T01:37:18.349Z,1.16
2023-01-28T01:38:18.297Z,1.17
2023-01-28T01:39:18.185Z,1.16
2023-01-28T01:40:18.132Z,1.15
2023-01-28T01:41:18.032Z,1.16
2023-01-28T01:42:17.974Z,1.14
2023-01-28T01:43:17.908Z,1.17
2023-01-28T01:44:17.859Z,1.16
2023-01-28T01:45:18.063Z,1.15
2023-01-28T01:46:17.731Z,1.14
2023-01-28T01:47:17.582Z,1.15
2023-01-28T01:48:17.545Z,1.15
2023-01-28T01:49:17.438Z,1.16
2023-01-28T01:50:17.371Z,1.17
2023-01-28T01:51:17.303Z,1.15
2023-01-28T01:52:17.214Z,1.13
2023-01-28T01:53:17.131Z,1.15
2023-01-28T01:54:17.078Z,1.16
2023-01-28T01:55:17.324Z,1.13
2023-01-28T01:56:16.907Z,1.13
2023-01-28T01:57:16.837Z,1.14
2023-01-28T01:58:16.746Z,1.16
2023-01-28T01:59:16.692Z,1.15
2023-01-28T02:00:16.588Z,1.14
2023-01-28T02:01:16.563Z,1.14
2023-01-28T02:02:16.496Z,1.13
2023-01-28T02:03:16.429Z,1.14
2023-01-28T02:04:16.280Z,1.15
2023-01-28T02:05:16.669Z,1.15
2023-01-28T02:06:16.187Z,1.12
2023-01-28T02:07:16.126Z,1.13
2023-01-28T02:08:16.020Z,1.12
2023-01-28T02:09:15.942Z,1.15
2023-01-28T02:10:15.862Z,1.15
2023-01-28T02:11:15.784Z,1.15
2023-01-28T02:12:15.679Z,1.13
2023-01-28T02:13:15.612Z,1.14
2023-01-28T02:14:29.442Z,1.14
2023-01-28T02:15:16.682Z,1.14
2023-01-28T02:16:15.403Z,1.14
2023-01-28T02:31:13.924Z,1.12
2023-01-28T02:39:13.045Z,1.10
2023-01-28T02:44:12.643Z,1.11
2023-01-28T02:45:12.966Z,1.11
2023-01-28T02:46:12.545Z,1.10
2023-01-28T02:47:12.441Z,1.10
2023-01-28T02:48:12.346Z,1.11
2023-01-28T02:49:12.284Z,1.11
2023-01-28T02:50:12.204Z,1.09
2023-01-28T02:51:12.134Z,1.10
2023-01-28T02:52:12.094Z,1.11
2023-01-28T02:53:11.971Z,1.12
2023-01-28T02:54:11.934Z,1.10
2023-01-28T02:55:11.985Z,1.10
2023-01-28T02:56:11.771Z,1.08
2023-01-28T02:57:11.688Z,1.10
2023-01-28T02:58:11.616Z,1.08
2023-01-28T02:59:11.537Z,1.09
2023-01-28T03:00:11.491Z,1.09
2023-01-28T03:01:11.434Z,1.08
2023-01-28T03:02:11.337Z,1.07
2023-01-28T03:03:11.287Z,1.09
2023-01-28T03:04:11.207Z,1.08
2023-01-28T03:05:11.119Z,1.09
2023-01-28T03:06:11.067Z,1.08
2023-01-28T03:07:11.014Z,1.06
2023-01-28T03:08:10.927Z,1.08
2023-01-28T03:09:10.874Z,1.06
2023-01-28T03:10:10.777Z,1.08
2023-01-28T03:11:10.720Z,1.08
2023-01-28T03:12:10.652Z,1.07
2023-01-28T03:13:10.552Z,1.08
2023-01-28T03:14:10.499Z,1.07
2023-01-28T03:15:10.397Z,1.11
2023-01-28T03:16:10.359Z,1.09
2023-01-28T03:17:10.259Z,1.08
2023-01-28T03:18:10.232Z,1.08
2023-01-28T03:19:10.117Z,1.08
2023-01-28T03:20:10.076Z,1.07
2023-01-28T03:21:09.975Z,1.07
2023-01-28T03:22:09.877Z,1.06
2023-01-28T03:23:09.792Z,1.06
2023-01-28T03:24:09.836Z,1.08
2023-01-28T03:25:09.702Z,1.08
2023-01-28T03:26:09.616Z,1.07
2023-01-28T03:27:09.570Z,1.07
2023-01-28T03:28:09.464Z,1.08
2023-01-28T03:29:09.358Z,1.06
2023-01-28T03:30:09.330Z,1.07
2023-01-28T03:31:09.272Z,1.06
2023-01-28T03:32:09.195Z,1.06
2023-01-28T03:33:09.079Z,1.07
2023-01-28T03:34:09.006Z,1.07
2023-01-28T03:35:08.947Z,1.07
2023-01-28T03:36:08.988Z,1.06
2023-01-28T03:37:08.761Z,1.08
2023-01-28T03:38:08.745Z,1.08
2023-01-28T03:39:08.605Z,1.07
2023-01-28T03:40:08.553Z,1.09
2023-01-28T03:41:08.482Z,1.09
2023-01-28T03:42:08.383Z,1.07
2023-01-28T03:43:08.337Z,1.06
2023-01-28T03:44:08.325Z,1.05
2023-01-28T03:45:08.209Z,1.07
2023-01-28T03:46:08.141Z,1.06
2023-01-28T03:47:08.016Z,1.05
2023-01-28T03:48:07.969Z,1.08
2023-01-28T03:49:07.890Z,1.06
2023-01-28T03:50:07.828Z,1.06
2023-01-28T03:51:07.745Z,1.05
2023-01-28T03:52:07.677Z,1.09
2023-01-28T03:53:07.578Z,1.08
2023-01-28T03:54:07.485Z,1.06
2023-01-28T03:55:07.431Z,1.05
2023-01-28T03:56:07.362Z,1.05
2023-01-28T03:57:07.282Z,1.07
2023-01-28T03:58:07.216Z,1.09
2023-01-28T03:59:07.117Z,1.04
2023-01-28T04:00:07.061Z,1.06
2023-01-28T04:01:06.992Z,1.07
2023-01-28T04:02:06.881Z,1.05
2023-01-28T04:03:06.873Z,1.06
2023-01-28T04:04:06.730Z,1.06
2023-01-28T04:05:06.644Z,1.04
2023-01-28T04:06:06.573Z,1.04
2023-01-28T04:07:06.506Z,1.06
2023-01-28T04:08:06.412Z,1.04
2023-01-28T04:09:06.346Z,1.05
2023-01-28T04:10:06.282Z,1.05
2023-01-28T04:11:06.204Z,1.05
2023-01-28T04:12:06.136Z,1.04
2023-01-28T04:13:06.035Z,1.03
2023-01-28T04:14:05.951Z,1.04
2023-01-28T04:15:05.895Z,1.02
2023-01-28T04:16:05.804Z,1.07
2023-01-28T04:17:05.728Z,1.05
2023-01-28T04:18:05.649Z,1.03
2023-01-28T04:19:05.601Z,1.05
2023-01-28T04:20:05.478Z,1.05
2023-01-28T04:21:05.413Z,1.05
2023-01-28T04:22:05.334Z,1.02
2023-01-28T04:23:05.254Z,1.03
2023-01-28T04:24:05.256Z,1.03
2023-01-28T04:25:05.113Z,1.02
2023-01-28T04:26:05.001Z,1.04
2023-01-28T04:27:04.956Z,1.04
2023-01-28T04:28:04.852Z,1.03
2023-01-28T04:29:04.781Z,1.04
2023-01-28T04:30:04.692Z,1.02
2023-01-28T04:31:04.773Z,1.02
2023-01-28T04:32:04.640Z,1.02
2023-01-28T04:33:04.479Z,1.03
2023-01-28T04:34:04.421Z,1.02
2023-01-28T04:35:04.350Z,1.02
2023-01-28T04:36:04.245Z,1.03
2023-01-28T04:37:04.191Z,1.03
2023-01-28T04:38:04.127Z,1.01
2023-01-28T04:39:04.069Z,1.04
2023-01-28T04:40:03.976Z,1.01
2023-01-28T04:41:03.893Z,1.01
2023-01-28T04:42:03.806Z,1.04
2023-01-28T04:43:03.748Z,1.00
2023-01-28T04:44:03.688Z,1.00
2023-01-28T04:45:03.606Z,1.01
2023-01-28T04:46:03.529Z,1.00
2023-01-28T04:47:03.402Z,1.04
2023-01-28T04:48:03.343Z,1.03
2023-01-28T04:49:03.281Z,1.04
2023-01-28T04:50:03.220Z,1.02
2023-01-28T04:51:03.121Z,1.02
2023-01-28T04:52:03.039Z,1.02
2023-01-28T04:53:02.964Z,1.01
2023-01-28T04:54:02.914Z,1.02
2023-01-28T06:31:56.160Z,0.92
2023-01-28T06:32:56.031Z,0.91
2023-01-28T06:33:56.006Z,0.92
2023-01-28T06:34:55.946Z,0.92
2023-01-28T06:35:55.849Z,0.91
2023-01-28T06:36:55.789Z,0.93
2023-01-28T06:37:55.712Z,0.92
2023-01-28T06:38:55.648Z,0.92
2023-01-28T06:39:55.635Z,0.91
2023-01-28T06:40:55.549Z,0.91
2023-01-28T06:41:55.450Z,0.91
2023-01-28T06:42:55.418Z,0.92
2023-01-28T06:43:55.358Z,0.93
2023-01-28T06:46:55.206Z,0.90
2023-01-28T06:47:55.125Z,0.90
2023-01-28T06:48:55.033Z,0.91
2023-01-28T06:49:55.004Z,0.92
2023-01-28T06:50:54.938Z,0.93
2023-01-28T06:51:54.851Z,0.91
2023-01-28T06:52:54.814Z,0.91
2023-01-28T06:53:54.738Z,0.91
2023-01-28T06:54:54.675Z,0.90
2023-01-28T06:55:54.612Z,0.90
2023-01-28T06:56:54.545Z,0.92
2023-01-28T06:57:54.565Z,0.91
2023-01-28T06:58:54.414Z,0.92
2023-01-28T06:59:54.341Z,0.92
2023-01-28T07:00:54.252Z,0.89
2023-01-28T07:01:54.233Z,0.90
2023-01-28T07:02:54.179Z,0.92
2023-01-28T07:03:54.048Z,0.90
2023-01-28T07:04:54.069Z,0.92
2023-01-28T07:05:53.976Z,0.92
2023-01-28T07:07:53.739Z,0.92
2023-01-28T07:08:53.632Z,0.92
2023-01-28T07:09:53.550Z,0.90
2023-01-28T07:10:53.516Z,0.89
2023-01-28T07:11:53.449Z,0.91
2023-01-28T07:12:53.399Z,0.93
2023-01-28T07:13:53.305Z,0.91
2023-01-28T07:14:53.274Z,0.93
2023-01-28T07:15:53.176Z,0.91
2023-01-28T07:16:53.160Z,0.92
2023-01-28T07:17:53.039Z,0.92
2023-01-28T07:18:53.019Z,0.93
2023-01-28T07:20:52.851Z,0.92
2023-01-28T07:21:52.808Z,0.91
2023-01-28T07:22:52.758Z,0.92
2023-01-28T07:23:52.726Z,0.91
2023-01-28T07:24:52.566Z,0.92
2023-01-28T07:25:52.528Z,0.90
2023-01-28T07:26:52.477Z,0.90
2023-01-28T07:27:52.371Z,0.92
2023-01-28T07:28:52.334Z,0.91
2023-01-28T07:29:52.242Z,0.91
2023-01-28T07:31:52.142Z,0.90
2023-01-28T07:32:52.070Z,0.96
2023-01-28T07:33:52.014Z,0.96
2023-01-28T07:34:51.904Z,0.94
2023-01-28T07:35:51.868Z,0.94
2023-01-28T07:36:51.762Z,0.92
2023-01-28T07:37:51.687Z,0.90
2023-01-28T07:38:51.627Z,0.91
2023-01-28T07:39:51.546Z,0.89
2023-01-28T07:40:51.499Z,0.89
2023-01-28T07:41:51.453Z,0.88
2023-01-28T07:42:51.360Z,0.89
2023-01-28T07:43:51.322Z,0.91
2023-01-28T07:44:51.273Z,0.90
2023-01-28T07:45:51.187Z,0.90
2023-01-28T07:46:51.134Z,0.90
2023-01-28T07:47:51.043Z,0.90
2023-01-28T07:48:50.977Z,0.90
2023-01-28T07:49:50.888Z,0.90
2023-01-28T07:50:50.861Z,0.91
2023-01-28T07:51:50.712Z,0.90
2023-01-28T07:52:50.657Z,0.90
2023-01-28T07:53:50.581Z,0.90
2023-01-28T07:54:50.513Z,0.92
2023-01-28T07:55:50.474Z,0.91
2023-01-28T07:56:50.386Z,0.91
2023-01-28T07:57:50.323Z,0.92
2023-01-28T07:58:50.217Z,0.92
2023-01-28T07:59:50.163Z,0.92
2023-01-28T08:00:50.105Z,0.92
2023-01-28T08:01:50.044Z,0.90
2023-01-28T08:02:49.972Z,0.91
2023-01-28T08:03:49.877Z,0.90
2023-01-28T08:04:49.900Z,0.91
2023-01-28T08:05:49.748Z,0.91
2023-01-28T08:06:49.714Z,0.90
2023-01-28T08:07:49.670Z,0.91
2023-01-28T08:08:49.541Z,0.91
2023-01-28T08:09:49.535Z,0.89
2023-01-28T08:10:49.462Z,0.91
2023-01-28T08:11:49.381Z,0.90
2023-01-28T08:12:49.306Z,0.88
2023-01-28T08:13:49.226Z,0.90
2023-01-28T08:14:49.169Z,0.90
2023-01-28T08:15:49.141Z,0.89
2023-01-28T08:16:49.047Z,0.89
2023-01-28T08:17:48.986Z,0.88
2023-01-28T08:18:48.941Z,0.90
2023-01-28T08:19:48.843Z,0.88
2023-01-28T08:20:48.780Z,0.91
2023-01-28T08:21:48.717Z,0.90
2023-01-28T08:22:48.633Z,0.89
2023-01-28T08:23:48.569Z,0.89
2023-01-28T08:24:48.480Z,0.89
2023-01-28T08:25:48.411Z,0.88
2023-01-28T08:26:48.349Z,0.88
2023-01-28T08:27:48.327Z,0.89
2023-01-28T08:28:49.971Z,0.90
2023-01-28T08:29:48.114Z,0.91
2023-01-28T08:30:48.102Z,0.89
2023-01-28T08:31:47.959Z,0.89
2023-01-28T08:32:47.817Z,0.90
2023-01-28T08:33:47.771Z,0.90
2023-01-28T08:34:47.621Z,0.88
2023-01-28T08:35:47.524Z,0.89
2023-01-28T08:36:47.440Z,0.89
2023-01-28T08:37:47.293Z,0.90
2023-01-28T08:38:47.195Z,0.88
2023-01-28T08:39:47.174Z,0.89
2023-01-28T08:40:47.026Z,0.88
2023-01-28T08:41:46.935Z,0.90
2023-01-28T08:42:46.800Z,0.90
2023-01-28T08:43:46.707Z,0.88
2023-01-28T08:44:46.601Z,0.89
2023-01-28T08:45:46.477Z,0.89
2023-01-28T08:46:46.388Z,0.88
2023-01-28T08:47:46.278Z,0.87
2023-01-28T08:48:46.189Z,0.88
2023-01-28T08:49:46.068Z,0.88
2023-01-28T08:50:45.975Z,0.89
2023-01-28T08:51:45.877Z,0.88
2023-01-28T08:52:45.787Z,0.89
2023-01-28T08:53:45.712Z,0.88
2023-01-28T08:54:45.576Z,0.88
2023-01-28T08:55:45.559Z,0.90
2023-01-28T08:56:45.399Z,0.89
2023-01-28T08:57:45.287Z,0.89
2023-01-28T08:58:45.197Z,0.90
2023-01-28T08:59:45.165Z,0.91
2023-01-28T09:00:44.965Z,0.88
2023-01-28T09:01:45.819Z,0.90
2023-01-28T09:02:44.795Z,0.89
2023-01-28T09:03:44.729Z,0.89
2023-01-28T09:04:44.595Z,0.89
2023-01-28T09:05:44.453Z,0.89
2023-01-28T09:06:44.345Z,0.90
2023-01-28T09:07:44.252Z,0.90
2023-01-28T09:08:44.132Z,0.88
2023-01-28T09:09:44.056Z,0.89
2023-01-28T09:10:43.996Z,0.90
2023-01-28T09:11:43.852Z,0.89
2023-01-28T09:12:43.754Z,0.90
2023-01-28T09:13:43.629Z,0.89
2023-01-28T09:14:43.534Z,0.89
2023-01-28T09:15:43.509Z,0.89
2023-01-28T09:16:43.309Z,0.90
2023-01-28T09:17:43.206Z,0.89
2023-01-28T09:18:43.086Z,0.89
2023-01-28T09:19:42.965Z,0.88
2023-01-28T09:20:42.873Z,0.88
2023-01-28T09:21:42.753Z,0.90
2023-01-28T09:22:42.691Z,0.89
2023-01-28T09:23:42.554Z,0.89
2023-01-28T09:24:42.471Z,0.89
2023-01-28T09:25:42.381Z,0.89
2023-01-28T09:26:42.234Z,0.88
2023-01-28T09:27:42.110Z,0.88
2023-01-28T09:28:42.056Z,0.87
2023-01-28T09:29:41.937Z,0.89
2023-01-28T09:30:41.878Z,0.88
2023-01-28T09:31:41.760Z,0.88
2023-01-28T09:32:41.620Z,0.87
2023-01-28T09:33:41.485Z,0.88
2023-01-28T09:34:41.421Z,0.88
2023-01-28T09:35:41.302Z,0.89
2023-01-28T09:36:41.203Z,0.88
2023-01-28T09:37:41.086Z,0.87
2023-01-28T09:38:40.966Z,0.88
2023-01-28T09:39:40.862Z,0.89
2023-01-28T09:40:40.778Z,0.88
2023-01-28T09:41:40.697Z,0.87
2023-01-28T09:42:40.591Z,0.87
2023-01-28T09:43:40.524Z,0.88
2023-01-28T09:44:40.457Z,0.88
2023-01-28T09:45:40.374Z,0.88
2023-01-28T09:46:40.351Z,0.87
2023-01-28T09:47:40.253Z,0.87
2023-01-28T09:48:40.140Z,0.89
2023-01-28T09:49:40.101Z,0.87
2023-01-28T09:50:40.053Z,0.88
2023-01-28T09:51:39.953Z,0.88
2023-01-28T09:52:39.909Z,0.88
2023-01-28T09:53:39.806Z,0.89
2023-01-28T09:54:39.764Z,0.90
2023-01-28T09:55:39.713Z,0.88
2023-01-28T09:56:39.630Z,0.88
2023-01-28T09:57:39.529Z,0.89
2023-01-28T09:58:39.467Z,0.88
2023-01-28T09:59:39.373Z,0.89
2023-01-28T10:00:39.369Z,0.89
2023-01-28T10:01:39.242Z,0.88
2023-01-28T10:02:39.202Z,0.89
2023-01-28T10:03:39.129Z,0.87
2023-01-28T10:04:39.022Z,0.88
2023-01-28T10:05:40.909Z,0.88
2023-01-28T10:06:38.883Z,0.90
2023-01-28T10:07:38.821Z,0.90
2023-01-28T10:08:38.765Z,0.89
2023-01-28T10:09:38.686Z,0.89
2023-01-28T10:10:38.726Z,0.90
2023-01-28T10:11:38.531Z,0.87
2023-01-28T10:12:38.499Z,0.90
2023-01-28T10:13:38.415Z,0.89
2023-01-28T10:14:38.315Z,0.87
2023-01-28T10:15:38.249Z,0.89
2023-01-28T10:16:38.169Z,0.88
2023-01-28T10:17:38.154Z,0.88
2023-01-28T10:18:38.036Z,0.90
2023-01-28T10:19:37.939Z,0.89
2023-01-28T10:20:37.887Z,0.89
2023-01-28T10:21:37.793Z,0.89
2023-01-28T10:22:37.715Z,0.88
2023-01-28T10:23:37.598Z,0.89
2023-01-28T10:24:37.553Z,0.90
2023-01-28T10:25:37.470Z,0.88
2023-01-28T10:26:37.370Z,0.88
2023-01-28T10:27:37.279Z,0.88
2023-01-28T10:28:37.236Z,0.88
2023-01-28T10:29:37.082Z,0.89
2023-01-28T10:30:37.059Z,0.88
2023-01-28T10:31:36.928Z,0.88
2023-01-28T10:32:36.796Z,0.89
2023-01-28T10:33:36.697Z,0.88
2023-01-28T10:34:36.658Z,0.88
2023-01-28T10:35:36.550Z,0.87
2023-01-28T10:36:36.435Z,0.88
2023-01-28T10:37:36.376Z,0.86
2023-01-28T10:38:36.256Z,0.90
2023-01-28T10:39:36.181Z,0.90
2023-01-28T10:40:36.141Z,0.91
2023-01-28T10:41:40.028Z,0.90
2023-01-28T10:42:36.881Z,0.90
2023-01-28T10:43:35.804Z,0.90
2023-01-28T10:44:35.674Z,0.89
2023-01-28T10:45:35.598Z,0.90
2023-01-28T10:46:35.483Z,0.91
2023-01-28T10:47:35.350Z,0.91
2023-01-28T10:48:35.275Z,0.89
2023-01-28T10:49:35.176Z,0.90
2023-01-28T10:50:35.076Z,0.90
2023-01-28T10:51:34.977Z,0.89
2023-01-28T10:52:34.872Z,0.89
2023-01-28T10:53:34.794Z,0.89
2023-01-28T10:54:34.632Z,0.91
2023-01-28T10:55:34.556Z,0.91
2023-01-28T10:56:34.461Z,0.89
2023-01-28T10:57:34.339Z,0.91
2023-01-28T10:58:34.246Z,0.89
2023-01-28T10:59:34.152Z,0.92
2023-01-28T11:01:33.933Z,0.90
2023-01-28T11:02:33.827Z,0.90
2023-01-28T11:03:33.691Z,0.91
2023-01-28T11:04:33.586Z,0.93
2023-01-28T11:05:33.573Z,0.90
2023-01-28T11:06:33.443Z,0.90
2023-01-28T11:07:33.360Z,0.91
2023-01-28T11:08:33.293Z,0.93
2023-01-28T11:09:33.192Z,0.91
2023-01-28T11:10:33.107Z,0.91
2023-01-28T11:11:33.044Z,0.92
2023-01-28T11:12:32.985Z,0.93
2023-01-28T11:13:32.846Z,0.93
2023-01-28T11:14:32.757Z,0.93
2023-01-28T11:15:32.708Z,0.92
2023-01-28T11:16:32.604Z,0.91
2023-01-28T11:17:32.622Z,0.91
2023-01-28T11:18:32.450Z,0.94
2023-01-28T11:19:32.363Z,0.92
2023-01-28T11:20:32.279Z,0.93
2023-01-28T11:21:32.229Z,0.93
2023-01-28T11:22:32.111Z,0.91
2023-01-28T11:23:32.040Z,0.92
2023-01-28T11:24:32.044Z,0.92
2023-01-28T11:25:31.867Z,0.94
2023-01-28T11:26:31.795Z,0.92
2023-01-28T11:27:31.671Z,0.92
2023-01-28T11:28:31.616Z,0.93
2023-01-28T11:29:31.527Z,0.92
2023-01-28T11:30:31.479Z,0.93
2023-01-28T11:31:31.403Z,0.91
2023-01-28T11:32:31.265Z,0.94
2023-01-28T11:33:31.172Z,0.92
2023-01-28T11:34:31.132Z,0.92
2023-01-28T11:35:31.037Z,0.93
2023-01-28T11:36:30.970Z,0.94
2023-01-28T11:37:30.867Z,0.93
2023-01-28T11:38:30.756Z,0.94
2023-01-28T11:39:30.699Z,0.93
2023-01-28T11:40:30.579Z,0.94
2023-01-28T11:41:31.222Z,0.94
2023-01-28T11:42:30.407Z,0.92
2023-01-28T11:43:30.317Z,0.95
2023-01-28T11:44:30.227Z,0.93
2023-01-28T11:45:30.196Z,0.93
2023-01-28T11:46:30.094Z,0.92
2023-01-28T11:47:29.973Z,0.93
2023-01-28T11:48:29.890Z,0.92
2023-01-28T11:49:29.824Z,0.93
2023-01-28T11:50:30.243Z,0.93
2023-01-28T11:51:29.661Z,0.92
2023-01-28T11:52:38.780Z,0.93
2023-01-28T11:53:30.489Z,0.93
2023-01-28T11:54:29.365Z,0.93
2023-01-28T11:55:29.240Z,0.93
2023-01-28T11:56:29.151Z,0.94
2023-01-28T11:57:29.085Z,0.93
2023-01-28T11:58:28.948Z,0.93
2023-01-28T11:59:28.817Z,0.92
2023-01-28T12:00:28.743Z,0.92
2023-01-28T12:01:28.641Z,0.93
2023-01-28T12:02:28.528Z,0.94
2023-01-28T12:03:28.384Z,0.95
2023-01-28T12:04:28.318Z,0.95
2023-01-28T12:05:28.233Z,0.93
2023-01-28T12:06:28.095Z,0.93
2023-01-28T12:07:27.980Z,0.92
2023-01-28T12:08:27.873Z,0.94
2023-01-28T12:18:26.911Z,0.95
2023-01-28T12:21:26.693Z,0.93
2023-01-28T12:22:26.620Z,0.93
2023-01-28T12:23:26.544Z,0.94
2023-01-28T12:24:26.555Z,0.95
2023-01-28T12:25:26.409Z,0.91
2023-01-28T12:26:26.321Z,0.92
2023-01-28T12:27:26.223Z,0.94
2023-01-28T12:28:26.152Z,0.94
2023-01-28T12:29:26.090Z,0.93
2023-01-28T12:30:26.003Z,0.94
2023-01-28T12:31:26.053Z,0.92
2023-01-28T12:32:25.797Z,0.94
2023-01-28T12:33:25.756Z,0.92
2023-01-28T12:34:25.644Z,0.92
2023-01-28T12:35:25.623Z,0.94
2023-01-28T12:36:25.499Z,0.92
2023-01-28T12:37:25.428Z,0.92
2023-01-28T12:38:25.354Z,0.91
2023-01-28T13:47:19.769Z,0.91
2023-01-28T13:48:19.696Z,0.90
2023-01-28T13:49:19.596Z,0.91
2023-01-28T13:50:19.560Z,0.90
2023-01-28T13:51:19.478Z,0.91
2023-01-28T13:52:19.371Z,0.90
2023-01-28T13:53:19.281Z,0.89
2023-01-28T13:54:19.242Z,0.91
2023-01-28T13:55:33.746Z,0.91
2023-01-28T13:56:20.090Z,0.91
2023-01-28T13:57:18.941Z,0.90
2023-01-28T13:58:18.815Z,0.91
2023-01-28T13:59:18.773Z,0.89
2023-01-28T14:00:20.892Z,0.90
2023-01-28T14:01:18.565Z,0.91
2023-01-28T14:02:18.426Z,0.89
2023-01-28T14:03:18.323Z,0.90
2023-01-28T14:04:18.257Z,0.90
2023-01-28T14:05:18.547Z,0.90
2023-01-28T14:06:18.011Z,0.89
2023-01-28T14:07:18.560Z,0.90
2023-01-28T14:08:17.814Z,0.90
2023-01-28T14:09:19.344Z,0.89
2023-01-28T14:10:18.056Z,0.89
2023-01-28T14:11:17.517Z,0.89
2023-01-28T14:12:17.368Z,0.90
2023-01-28T14:13:17.261Z,0.89
2023-01-28T14:14:17.233Z,0.89
2023-01-28T14:15:17.700Z,0.89
2023-01-28T14:16:16.952Z,0.89
2023-01-28T14:17:16.853Z,0.89
2023-01-28T14:18:16.760Z,0.90
2023-01-28T14:19:16.699Z,0.88
2023-01-28T14:20:16.959Z,0.88
2023-01-28T14:22:16.466Z,0.87
2023-01-28T14:23:16.396Z,0.87
2023-01-28T14:25:16.716Z,0.88
2023-01-28T14:26:16.196Z,0.89
2023-01-28T14:29:15.966Z,0.88
2023-01-28T14:30:15.913Z,0.90
2023-01-28T14:31:15.920Z,0.88
2023-01-28T14:32:15.732Z,0.87
2023-01-28T14:33:15.676Z,0.87
2023-01-28T14:34:15.611Z,0.87
2023-01-28T14:35:15.839Z,0.86
2023-01-28T14:36:15.475Z,0.85
2023-01-28T14:37:15.392Z,0.86
2023-01-28T14:38:15.354Z,0.86
2023-01-28T14:39:15.254Z,0.87
2023-01-28T14:40:15.489Z,0.87
2023-01-28T14:41:15.157Z,0.86
2023-01-28T14:43:15.013Z,0.86
2023-01-28T14:44:14.947Z,0.88
2023-01-28T14:45:14.871Z,0.87
2023-01-28T14:46:14.799Z,0.88
2023-01-28T14:47:14.725Z,0.86
2023-01-28T14:48:14.652Z,0.86
2023-01-28T14:49:14.558Z,0.88
2023-01-28T14:50:14.826Z,0.88
2023-01-28T14:51:14.432Z,0.86
2023-01-28T14:52:14.378Z,0.86
2023-01-28T14:53:14.320Z,0.86
2023-01-28T14:54:14.222Z,0.87
2023-01-28T14:55:14.180Z,0.86
2023-01-28T14:56:14.121Z,0.86
2023-01-28T14:57:13.999Z,0.84
2023-01-28T14:58:13.965Z,0.84
2023-01-28T14:59:13.907Z,0.85
2023-01-28T15:00:14.063Z,0.85
2023-01-28T15:01:13.769Z,0.84
2023-01-28T15:02:13.674Z,0.86
2023-01-28T15:03:24.051Z,0.84
2023-01-28T15:04:14.521Z,0.84
2023-01-28T15:05:13.405Z,0.84
2023-01-28T15:19:12.081Z,0.84
2023-01-28T15:24:11.655Z,0.83
2023-01-28T15:25:11.532Z,0.85
2023-01-28T15:26:11.462Z,0.83
2023-01-28T15:27:11.410Z,0.82
2023-01-28T15:28:11.334Z,0.84
2023-01-28T15:29:11.332Z,0.83
2023-01-28T15:30:11.258Z,0.83
2023-01-28T15:31:11.320Z,0.85
2023-01-28T15:32:11.110Z,0.83
2023-01-28T15:33:11.028Z,0.82
2023-01-28T15:34:11.017Z,0.85
2023-01-28T15:35:10.886Z,0.84
2023-01-28T15:36:10.856Z,0.83
2023-01-28T15:37:10.798Z,0.83
2023-01-28T15:38:10.726Z,0.82
2023-01-28T15:39:10.663Z,0.84
2023-01-28T15:40:10.582Z,0.82
2023-01-28T15:41:10.545Z,0.81
2023-01-28T15:42:10.498Z,0.82
2023-01-28T15:43:10.386Z,0.82
2023-01-28T15:44:10.333Z,0.81
2023-01-28T15:45:10.283Z,0.83
2023-01-28T15:46:10.226Z,0.82
2023-01-28T17:05:23.522Z,0.51
2023-01-28T17:34:24.700Z,0.51
2023-01-28T17:35:24.773Z,0.51
2023-01-28T17:36:24.830Z,0.52
2023-01-28T17:37:24.849Z,0.51
2023-01-28T17:38:24.912Z,0.53
2023-01-28T17:39:24.940Z,0.51
2023-01-28T17:40:25.007Z,0.51
2023-01-28T17:41:25.007Z,0.52
2023-01-28T17:42:27.347Z,0.52
2023-01-28T17:43:25.089Z,0.51
2023-01-28T17:44:25.149Z,0.51
2023-01-28T17:45:25.247Z,0.52
2023-01-28T17:46:25.290Z,0.52
2023-01-28T17:47:25.299Z,0.52
2023-01-28T17:48:25.326Z,0.52
2023-01-28T17:49:25.365Z,0.52
2023-01-28T17:50:25.451Z,0.52
2023-01-28T17:51:25.491Z,0.52
2023-01-28T17:52:25.500Z,0.52
2023-01-28T17:53:25.500Z,0.52
2023-01-28T17:54:25.535Z,0.50
2023-01-28T17:55:25.556Z,0.51
2023-01-28T17:56:25.575Z,0.51
2023-01-28T17:57:25.572Z,0.51
2023-01-28T17:58:25.635Z,0.52
2023-01-28T17:59:25.957Z,0.51
2023-01-28T18:00:25.668Z,0.52
2023-01-28T18:01:25.743Z,0.51
2023-01-28T18:02:25.744Z,0.53
2023-01-28T18:03:25.761Z,0.51
2023-01-28T18:04:25.783Z,0.52
2023-01-28T18:05:25.857Z,0.52
2023-01-28T18:06:25.903Z,0.52
2023-01-28T18:07:25.942Z,0.51
2023-01-28T18:08:26.020Z,0.51
2023-01-28T18:09:25.987Z,0.52
2023-01-28T18:10:26.100Z,0.52
2023-01-28T18:11:26.103Z,0.53
2023-01-28T18:12:26.173Z,0.51
2023-01-28T18:13:26.203Z,0.52
2023-01-28T18:14:26.242Z,0.51
2023-01-28T18:15:26.337Z,0.53
2023-01-28T18:16:26.375Z,0.53
2023-01-28T18:17:26.414Z,0.52
2023-01-28T18:18:26.416Z,0.51
2023-01-28T18:19:26.467Z,0.52
2023-01-28T18:20:26.552Z,0.52
2023-01-28T18:21:26.632Z,0.52
2023-01-28T18:22:26.664Z,0.52
2023-01-28T18:23:26.685Z,0.51
2023-01-28T18:24:26.765Z,0.51
2023-01-28T18:25:26.740Z,0.52
2023-01-28T18:26:26.795Z,0.52
2023-01-28T18:27:26.855Z,0.51
2023-01-28T18:28:26.914Z,0.51
2023-01-28T18:29:26.955Z,0.51
2023-01-28T18:30:27.003Z,0.51
2023-01-28T18:31:27.115Z,0.52
2023-01-28T18:32:27.093Z,0.51
2023-01-28T18:33:27.105Z,0.52
2023-01-28T18:34:27.199Z,0.51
2023-01-28T18:35:27.206Z,0.51
2023-01-28T18:36:27.271Z,0.51
2023-01-28T18:37:27.294Z,0.52
2023-01-28T18:38:27.353Z,0.50
2023-01-28T18:39:27.396Z,0.52
2023-01-28T18:40:27.473Z,0.51
2023-01-28T18:41:27.518Z,0.52
2023-01-28T18:42:27.514Z,0.51
2023-01-28T18:43:27.577Z,0.52
2023-01-28T18:44:27.602Z,0.50
2023-01-28T18:45:27.793Z,0.51
2023-01-28T18:46:27.745Z,0.52
2023-01-28T18:47:27.732Z,0.52
2023-01-28T18:48:27.870Z,0.51
2023-01-28T18:49:27.852Z,0.53
2023-01-28T18:50:27.888Z,0.52
2023-01-28T18:51:30.517Z,0.51
2023-01-28T18:52:27.963Z,0.52
2023-01-28T18:53:27.917Z,0.51
2023-01-28T18:54:27.896Z,0.51
2023-01-28T18:55:27.882Z,0.52
2023-01-28T18:56:27.893Z,0.52
2023-01-28T18:57:27.888Z,0.52
2023-01-28T18:58:27.891Z,0.51
2023-01-28T18:59:27.873Z,0.52
2023-01-28T19:00:27.807Z,0.51
2023-01-28T19:01:28.167Z,0.52
2023-01-28T19:02:27.806Z,0.52
2023-01-28T19:03:27.798Z,0.51
2023-01-28T19:04:27.826Z,0.52
2023-01-28T19:05:27.760Z,0.51
2023-01-28T19:06:27.773Z,0.52